Lafayette, Colorado
Current Conditions -  °F | °C
As of 1:45 PM on Saturday 20 Dec 2014 (Local Time) from KBJC Reporting Station
Broken Clouds Broken Clouds  
Wind Chill: 52°   Ceiling: 20000
Heat Index: 52°   Visibility: 70mi
Dew Point: 18°   Wind: 13mph
Humidity: 26%   Direction: 320°NW
Pressure: 29.92"   Gusts: 30mph
Location:  39.99°N, 105.09°W
Report Text: KBJC 202045Z 32011G26KT 70SM FEW080 SCT120 BKN200 11/M08 A2992
Loading
Personal Weather Stations






























Interactive Weather Map New forecast layout! Learn more

10-Day Weather Forecast

Advertisements
Track Severe Weather on mobile